sensor_id;sensor_type;location;lat;lon;timestamp;pressure;altitude;pressure_sealevel;temperature;humidity
58927;BME280;44712;52.530;9.760;2023-10-13T00:00:31;100598.31;;;13.61;100.00
58927;BME280;44712;52.530;9.760;2023-10-13T00:03:04;100601.75;;;13.68;100.00
58927;BME280;44712;52.530;9.760;2023-10-13T00:05:32;100596.16;;;13.74;100.00
58927;BME280;44712;52.530;9.760;2023-10-13T00:08:00;100592.47;;;13.77;100.00
58927;BME280;44712;52.530;9.760;2023-10-13T00:10:28;100595.03;;;13.81;100.00
58927;BME280;44712;52.530;9.760;2023-10-13T00:12:55;100594.91;;;13.86;100.00
58927;BME280;44712;52.530;9.760;2023-10-13T00:15:32;100593.03;;;13.88;100.00
58927;BME280;44712;52.530;9.760;2023-10-13T00:18:30;100582.06;;;13.91;100.00
58927;BME280;44712;52.530;9.760;2023-10-13T00:21:02;100587.41;;;13.94;100.00
58927;BME280;44712;52.530;9.760;2023-10-13T00:24:22;100583.78;;;13.95;100.00
58927;BME280;44712;52.530;9.760;2023-10-13T00:26:57;100584.66;;;13.96;100.00
58927;BME280;44712;52.530;9.760;2023-10-13T00:29:24;100574.66;;;13.96;100.00
58927;BME280;44712;52.530;9.760;2023-10-13T00:32:01;100582.75;;;13.99;100.00
58927;BME280;44712;52.530;9.760;2023-10-13T00:34:29;100581.72;;;14.03;100.00
58927;BME280;44712;52.530;9.760;2023-10-13T00:36:59;100580.72;;;14.06;100.00
58927;BME280;44712;52.530;9.760;2023-10-13T00:39:48;100579.63;;;14.12;100.00
58927;BME280;44712;52.530;9.760;2023-10-13T00:42:24;100575.88;;;14.16;100.00
58927;BME280;44712;52.530;9.760;2023-10-13T00:45:12;100575.78;;;14.19;100.00
58927;BME280;44712;52.530;9.760;2023-10-13T00:47:44;100569.34;;;14.23;100.00
58927;BME280;44712;52.530;9.760;2023-10-13T00:50:16;100567.38;;;14.27;100.00
58927;BME280;44712;52.530;9.760;2023-10-13T00:52:46;100562.84;;;14.27;100.00
58927;BME280;44712;52.530;9.760;2023-10-13T00:55:18;100560.09;;;14.29;100.00
58927;BME280;44712;52.530;9.760;2023-10-13T00:57:46;100556.31;;;14.33;100.00
58927;BME280;44712;52.530;9.760;2023-10-13T01:00:14;100555.34;;;14.35;100.00
58927;BME280;44712;52.530;9.760;2023-10-13T01:02:53;100567.91;;;14.39;100.00
58927;BME280;44712;52.530;9.760;2023-10-13T01:05:25;100558.75;;;14.42;100.00
58927;BME280;44712;52.530;9.760;2023-10-13T01:07:52;100553.16;;;14.47;100.00
58927;BME280;44712;52.530;9.760;2023-10-13T01:10:21;100546.81;;;14.46;100.00
58927;BME280;44712;52.530;9.760;2023-10-13T01:12:52;100559.41;;;14.50;100.00
58927;BME280;44712;52.530;9.760;2023-10-13T01:15:20;100552.97;;;14.53;100.00
58927;BME280;44712;52.530;9.760;2023-10-13T01:17:48;100556.50;;;14.55;100.00
58927;BME280;44712;52.530;9.760;2023-10-13T01:20:15;100558.25;;;14.57;100.00
58927;BME280;44712;52.530;9.760;2023-10-13T01:22:52;100551.81;;;14.60;100.00
58927;BME280;44712;52.530;9.760;2023-10-13T01:25:23;100548.09;;;14.63;100.00
58927;BME280;44712;52.530;9.760;2023-10-13T01:27:55;100548.94;;;14.66;100.00
58927;BME280;44712;52.530;9.760;2023-10-13T01:30:21;100538.97;;;14.65;100.00
58927;BME280;44712;52.530;9.760;2023-10-13T01:32:53;100539.81;;;14.67;100.00
58927;BME280;44712;52.530;9.760;2023-10-13T01:35:27;100536.06;;;14.71;100.00
58927;BME280;44712;52.530;9.760;2023-10-13T01:38:02;100528.81;;;14.70;100.00
58927;BME280;44712;52.530;9.760;2023-10-13T01:40:29;100527.94;;;14.70;100.00
58927;BME280;44712;52.530;9.760;2023-10-13T01:43:00;100527.03;;;14.69;100.00
58927;BME280;44712;52.530;9.760;2023-10-13T01:45:28;100526.94;;;14.72;100.00
58927;BME280;44712;52.530;9.760;2023-10-13T01:47:58;100520.47;;;14.75;100.00
58927;BME280;44712;52.530;9.760;2023-10-13T01:50:25;100519.59;;;14.75;100.00
58927;BME280;44712;52.530;9.760;2023-10-13T01:52:56;100513.09;;;14.79;100.00
58927;BME280;44712;52.530;9.760;2023-10-13T01:55:40;100510.28;;;14.82;100.00
58927;BME280;44712;52.530;9.760;2023-10-13T01:58:11;100511.22;;;14.81;100.00
58927;BME280;44712;52.530;9.760;2023-10-13T02:00:43;100505.66;;;14.84;100.00
58927;BME280;44712;52.530;9.760;2023-10-13T02:03:11;100502.06;;;14.83;100.00
58927;BME280;44712;52.530;9.760;2023-10-13T02:05:45;100499.28;;;14.85;100.00
58927;BME280;44712;52.530;9.760;2023-10-13T02:08:21;100497.38;;;14.87;100.00
58927;BME280;44712;52.530;9.760;2023-10-13T02:10:52;100496.38;;;14.89;100.00
58927;BME280;44712;52.530;9.760;2023-10-13T02:13:20;100493.66;;;14.89;100.00
58927;BME280;44712;52.530;9.760;2023-10-13T02:15:54;100493.72;;;14.88;100.00
58927;BME280;44712;52.530;9.760;2023-10-13T02:18:24;100491.94;;;14.87;100.00
58927;BME280;44712;52.530;9.760;2023-10-13T02:20:55;100497.28;;;14.90;100.00
58927;BME280;44712;52.530;9.760;2023-10-13T02:23:23;100492.78;;;14.89;100.00
58927;BME280;44712;52.530;9.760;2023-10-13T02:25:51;100495.50;;;14.89;100.00
58927;BME280;44712;52.530;9.760;2023-10-13T02:28:27;100479.16;;;14.89;100.00
58927;BME280;44712;52.530;9.760;2023-10-13T02:31:03;100486.41;;;14.90;100.00
58927;BME280;44712;52.530;9.760;2023-10-13T02:33:31;100475.59;;;14.87;100.00
58927;BME280;44712;52.530;9.760;2023-10-13T02:36:02;100480.03;;;14.89;100.00
58927;BME280;44712;52.530;9.760;2023-10-13T02:38:32;100470.03;;;14.90;100.00
58927;BME280;44712;52.530;9.760;2023-10-13T02:41:04;100470.03;;;14.90;100.00
58927;BME280;44712;52.530;9.760;2023-10-13T02:43:36;100458.19;;;14.91;100.00
58927;BME280;44712;52.530;9.760;2023-10-13T02:46:03;100469.94;;;14.93;100.00
58927;BME280;44712;52.530;9.760;2023-10-13T02:48:31;100454.47;;;14.94;100.00
58927;BME280;44712;52.530;9.760;2023-10-13T02:51:08;100451.59;;;14.98;100.00
58927;BME280;44712;52.530;9.760;2023-10-13T02:53:45;100445.91;;;15.04;100.00
58927;BME280;44712;52.530;9.760;2023-10-13T02:56:16;100450.31;;;15.09;100.00
58927;BME280;44712;52.530;9.760;2023-10-13T02:58:49;100446.56;;;15.11;100.00
58927;BME280;44712;52.530;9.760;2023-10-13T03:01:33;100446.47;;;15.14;100.00
58927;BME280;44712;52.530;9.760;2023-10-13T03:04:03;100442.81;;;15.15;100.00
58927;BME280;44712;52.530;9.760;2023-10-13T03:06:35;100440.03;;;15.17;100.00
58927;BME280;44712;52.530;9.760;2023-10-13T03:09:11;100441.81;;;15.18;100.00
58927;BME280;44712;52.530;9.760;2023-10-13T03:11:46;100441.69;;;15.21;100.00
58927;BME280;44712;52.530;9.760;2023-10-13T03:14:20;100436.19;;;15.22;100.00
58927;BME280;44712;52.530;9.760;2023-10-13T03:16:52;100430.53;;;15.27;100.00
58927;BME280;44712;52.530;9.760;2023-10-13T03:19:20;100432.25;;;15.30;100.00
58927;BME280;44712;52.530;9.760;2023-10-13T03:21:47;100425.94;;;15.29;100.00
58927;BME280;44712;52.530;9.760;2023-10-13T03:24:25;100419.53;;;15.30;100.00
58927;BME280;44712;52.530;9.760;2023-10-13T03:27:04;100413.16;;;15.31;100.00
58927;BME280;44712;52.530;9.760;2023-10-13T03:29:39;100416.81;;;15.30;100.00
58927;BME280;44712;52.530;9.760;2023-10-13T03:32:21;100412.28;;;15.29;100.00
58927;BME280;44712;52.530;9.760;2023-10-13T03:34:47;100414.09;;;15.30;100.00
58927;BME280;44712;52.530;9.760;2023-10-13T03:37:27;100408.72;;;15.27;100.00
58927;BME280;44712;52.530;9.760;2023-10-13T03:40:12;100403.41;;;15.24;100.00
58927;BME280;44712;52.530;9.760;2023-10-13T03:42:50;100406.19;;;15.22;100.00
58927;BME280;44712;52.530;9.760;2023-10-13T03:45:40;100399.94;;;15.19;100.00
58927;BME280;44712;52.530;9.760;2023-10-13T03:48:12;100400.94;;;15.16;100.00
58927;BME280;44712;52.530;9.760;2023-10-13T03:50:58;100392.97;;;15.12;100.00
58927;BME280;44712;52.530;9.760;2023-10-13T03:53:35;100391.19;;;15.11;100.00
58927;BME280;44712;52.530;9.760;2023-10-13T03:56:04;100396.63;;;15.11;100.00
58927;BME280;44712;52.530;9.760;2023-10-13T03:58:58;100391.19;;;15.11;100.00
58927;BME280;44712;52.530;9.760;2023-10-13T04:01:28;100399.41;;;15.09;100.00
58927;BME280;44712;52.530;9.760;2023-10-13T04:03:58;100390.31;;;15.10;100.00
58927;BME280;44712;52.530;9.760;2023-10-13T04:06:38;100379.47;;;15.09;100.00
58927;BME280;44712;52.530;9.760;2023-10-13T04:09:14;100385.84;;;15.07;100.00
58927;BME280;44712;52.530;9.760;2023-10-13T04:11:58;100375.88;;;15.06;100.00
58927;BME280;44712;52.530;9.760;2023-10-13T04:14:31;100371.38;;;15.05;100.00
58927;BME280;44712;52.530;9.760;2023-10-13T04:17:17;100369.50;;;15.07;100.00
58927;BME280;44712;52.530;9.760;2023-10-13T04:19:57;100367.72;;;15.06;100.00
58927;BME280;44712;52.530;9.760;2023-10-13T04:22:43;100369.50;;;15.07;100.00
58927;BME280;44712;52.530;9.760;2023-10-13T04:25:24;100355.03;;;15.05;100.00
58927;BME280;44712;52.530;9.760;2023-10-13T04:28:12;100359.47;;;15.08;100.00
58927;BME280;44712;52.530;9.760;2023-10-13T04:30:51;100351.38;;;15.06;100.00
58927;BME280;44712;52.530;9.760;2023-10-13T04:33:28;100344.03;;;15.09;100.00
58927;BME280;44712;52.530;9.760;2023-10-13T04:36:13;100350.34;;;15.09;100.00
58927;BME280;44712;52.530;9.760;2023-10-13T04:38:45;100338.59;;;15.09;100.00
58927;BME280;44712;52.530;9.760;2023-10-13T04:41:38;100331.22;;;15.11;100.00
58927;BME280;44712;52.530;9.760;2023-10-13T04:44:13;100340.34;;;15.10;100.00
58927;BME280;44712;52.530;9.760;2023-10-13T04:46:51;100327.56;;;15.12;100.00
58927;BME280;44712;52.530;9.760;2023-10-13T04:53:27;100316.66;;;15.12;100.00
58927;BME280;44712;52.530;9.760;2023-10-13T04:56:01;100321.16;;;15.13;100.00
58927;BME280;44712;52.530;9.760;2023-10-13T04:58:31;100312.06;;;15.12;100.00
58927;BME280;44712;52.530;9.760;2023-10-13T05:00:59;100306.75;;;15.09;100.00
58927;BME280;44712;52.530;9.760;2023-10-13T05:03:45;100298.66;;;15.07;100.00
58927;BME280;44712;52.530;9.760;2023-10-13T05:06:31;100294.97;;;15.09;100.00
58927;BME280;44712;52.530;9.760;2023-10-13T05:09:13;100302.19;;;15.10;100.00
58927;BME280;44712;52.530;9.760;2023-10-13T05:11:59;100302.19;;;15.10;100.00
58927;BME280;44712;52.530;9.760;2023-10-13T05:14:45;100300.44;;;15.09;100.00
58927;BME280;44712;52.530;9.760;2023-10-13T05:17:31;100293.06;;;15.11;100.00
58927;BME280;44712;52.530;9.760;2023-10-13T05:20:17;100291.28;;;15.10;100.00
58927;BME280;44712;52.530;9.760;2023-10-13T05:23:02;100295.78;;;15.11;100.00
58927;BME280;44712;52.530;9.760;2023-10-13T05:25:48;100291.28;;;15.10;100.00
58927;BME280;44712;52.530;9.760;2023-10-13T05:28:34;100287.63;;;15.11;100.00
58927;BME280;44712;52.530;9.760;2023-10-13T05:31:20;100286.59;;;15.13;100.00
58927;BME280;44712;52.530;9.760;2023-10-13T05:34:06;100287.47;;;15.14;100.00
58927;BME280;44712;52.530;9.760;2023-10-13T05:36:51;100286.47;;;15.16;100.00
58927;BME280;44712;52.530;9.760;2023-10-13T05:39:39;100276.47;;;15.17;100.00
58927;BME280;44712;52.530;9.760;2023-10-13T05:42:24;100274.69;;;15.16;100.00
58927;BME280;44712;52.530;9.760;2023-10-13T05:45:11;100275.47;;;15.19;100.00
58927;BME280;44712;52.530;9.760;2023-10-13T05:47:44;100269.03;;;15.22;100.00
58927;BME280;44712;52.530;9.760;2023-10-13T05:50:21;100259.00;;;15.22;100.00
58927;BME280;44712;52.530;9.760;2023-10-13T05:52:49;100256.06;;;15.27;100.00
58927;BME280;44712;52.530;9.760;2023-10-13T05:55:25;100253.31;;;15.29;100.00
58927;BME280;44712;52.530;9.760;2023-10-13T05:58:12;100253.25;;;15.30;100.00
58927;BME280;44712;52.530;9.760;2023-10-13T06:00:58;100242.25;;;15.32;100.00
58927;BME280;44712;52.530;9.760;2023-10-13T06:03:44;100247.66;;;15.33;100.00
58927;BME280;44712;52.530;9.760;2023-10-13T06:06:30;100254.75;;;15.37;100.00
58927;BME280;44712;52.530;9.760;2023-10-13T06:09:16;100261.13;;;15.38;100.00
58927;BME280;44712;52.530;9.760;2023-10-13T06:12:02;100259.13;;;15.42;100.00
58927;BME280;44712;52.530;9.760;2023-10-13T06:14:47;100260.97;;;15.41;100.00
58927;BME280;44712;52.530;9.760;2023-10-13T06:17:32;100259.97;;;15.44;100.00
58927;BME280;44712;52.530;9.760;2023-10-13T06:20:20;100252.59;;;15.46;100.00
58927;BME280;44712;52.530;9.760;2023-10-13T06:23:05;100249.81;;;15.47;100.00
58927;BME280;44712;52.530;9.760;2023-10-13T06:25:52;100247.97;;;15.48;100.00
58927;BME280;44712;52.530;9.760;2023-10-13T06:28:39;100246.97;;;15.50;100.00
58927;BME280;44712;52.530;9.760;2023-10-13T06:31:10;100235.28;;;15.47;100.00
58927;BME280;44712;52.530;9.760;2023-10-13T06:33:55;100235.16;;;15.50;100.00
58927;BME280;44712;52.530;9.760;2023-10-13T06:36:23;100228.75;;;15.51;100.00
58927;BME280;44712;52.530;9.760;2023-10-13T06:38:51;100228.75;;;15.51;100.00
58927;BME280;44712;52.530;9.760;2023-10-13T06:41:45;100229.69;;;15.50;100.00
58927;BME280;44712;52.530;9.760;2023-10-13T06:44:15;100235.16;;;15.50;100.00
58927;BME280;44712;52.530;9.760;2023-10-13T06:46:42;100235.16;;;15.50;100.00
58927;BME280;44712;52.530;9.760;2023-10-13T06:49:11;100244.19;;;15.52;100.00
58927;BME280;44712;52.530;9.760;2023-10-13T06:51:40;100237.84;;;15.51;100.00
58927;BME280;44712;52.530;9.760;2023-10-13T06:54:07;100238.72;;;15.52;100.00
58927;BME280;44712;52.530;9.760;2023-10-13T06:56:46;100239.66;;;15.51;100.00
58927;BME280;44712;52.530;9.760;2023-10-13T06:59:19;100245.06;;;15.52;100.00
58927;BME280;44712;52.530;9.760;2023-10-13T07:01:47;100234.16;;;15.52;100.00
58927;BME280;44712;52.530;9.760;2023-10-13T07:04:15;100227.69;;;15.55;100.00
58927;BME280;44712;52.530;9.760;2023-10-13T07:06:43;100216.69;;;15.56;100.00
58927;BME280;44712;52.530;9.760;2023-10-13T07:09:18;100215.75;;;15.57;100.00
58927;BME280;44712;52.530;9.760;2023-10-13T07:12:17;100202.03;;;15.59;100.00
58927;BME280;44712;52.530;9.760;2023-10-13T07:14:49;100201.09;;;15.60;100.00
58927;BME280;44712;52.530;9.760;2023-10-13T07:17:20;100202.00;;;15.61;100.00
58927;BME280;44712;52.530;9.760;2023-10-13T07:19:53;100192.78;;;15.63;100.00
58927;BME280;44712;52.530;9.760;2023-10-13T07:22:22;100179.16;;;15.63;100.00
58927;BME280;44712;52.530;9.760;2023-10-13T07:24:50;100185.44;;;15.65;100.00
58927;BME280;44712;52.530;9.760;2023-10-13T07:27:20;100178.09;;;15.67;100.00
58927;BME280;44712;52.530;9.760;2023-10-13T07:29:54;100174.38;;;15.68;100.00
58927;BME280;44712;52.530;9.760;2023-10-13T07:32:41;100176.16;;;15.69;100.00
58927;BME280;44712;52.530;9.760;2023-10-13T07:35:17;100166.13;;;15.70;100.00
58927;BME280;44712;52.530;9.760;2023-10-13T07:37:48;100158.78;;;15.72;100.00
58927;BME280;44712;52.530;9.760;2023-10-13T07:40:22;100152.44;;;15.71;100.00
58927;BME280;44712;52.530;9.760;2023-10-13T07:42:53;100141.53;;;15.71;100.00
58927;BME280;44712;52.530;9.760;2023-10-13T07:45:28;100143.28;;;15.72;100.00
58927;BME280;44712;52.530;9.760;2023-10-13T07:50:39;100123.09;;;15.77;100.00
58927;BME280;44712;52.530;9.760;2023-10-13T07:53:06;100116.69;;;15.78;100.00
58927;BME280;44712;52.530;9.760;2023-10-13T07:55:46;100113.97;;;15.78;100.00
58927;BME280;44712;52.530;9.760;2023-10-13T07:58:14;100112.06;;;15.80;100.00
58927;BME280;44712;52.530;9.760;2023-10-13T08:00:41;100112.06;;;15.80;100.00
58927;BME280;44712;52.530;9.760;2023-10-13T08:03:08;100106.50;;;15.83;100.00
58927;BME280;44712;52.530;9.760;2023-10-13T08:05:55;100106.50;;;15.83;100.00
58927;BME280;44712;52.530;9.760;2023-10-13T08:08:25;100107.34;;;15.85;100.00
58927;BME280;44712;52.530;9.760;2023-10-13T08:10:57;100116.31;;;15.87;100.00
58927;BME280;44712;52.530;9.760;2023-10-13T08:13:30;100111.81;;;15.86;100.00
58927;BME280;44712;52.530;9.760;2023-10-13T08:15:57;100112.56;;;15.89;100.00
58927;BME280;44712;52.530;9.760;2023-10-13T08:18:33;100111.53;;;15.92;100.00
58927;BME280;44712;52.530;9.760;2023-10-13T08:21:03;100103.28;;;15.94;100.00
58927;BME280;44712;52.530;9.760;2023-10-13T08:23:31;100102.25;;;15.96;100.00
58927;BME280;44712;52.530;9.760;2023-10-13T08:26:28;100106.56;;;16.02;100.00
58927;BME280;44712;52.530;9.760;2023-10-13T08:29:04;100116.16;;;16.11;100.00
58927;BME280;44712;52.530;9.760;2023-10-13T08:31:51;100106.72;;;16.18;100.00
58927;BME280;44712;52.530;9.760;2023-10-13T08:34:31;100112.78;;;16.24;100.00
58927;BME280;44712;52.530;9.760;2023-10-13T08:37:11;100109.56;;;16.35;100.00
58927;BME280;44712;52.530;9.760;2023-10-13T08:39:52;100109.28;;;16.42;100.00
58927;BME280;44712;52.530;9.760;2023-10-13T08:42:51;100103.53;;;16.48;100.00
58927;BME280;44712;52.530;9.760;2023-10-13T08:45:40;100105.97;;;16.54;100.00
58927;BME280;44712;52.530;9.760;2023-10-13T08:48:14;100107.66;;;16.56;100.00
58927;BME280;44712;52.530;9.760;2023-10-13T08:56:04;100095.94;;;16.73;100.00
58927;BME280;44712;52.530;9.760;2023-10-13T08:59:02;100098.50;;;16.77;100.00
58927;BME280;44712;52.530;9.760;2023-10-13T09:01:33;100107.38;;;16.82;100.00
58927;BME280;44712;52.530;9.760;2023-10-13T09:04:16;100101.75;;;16.85;100.00
58927;BME280;44712;52.530;9.760;2023-10-13T09:06:54;100092.47;;;16.89;100.00
58927;BME280;44712;52.530;9.760;2023-10-13T09:14:54;100100.28;;;16.97;100.00
58927;BME280;44712;52.530;9.760;2023-10-13T09:17:25;100092.66;;;17.03;100.00
58927;BME280;44712;52.530;9.760;2023-10-13T09:20:05;100087.84;;;17.09;100.00
58927;BME280;44712;52.530;9.760;2023-10-13T09:22:56;100083.88;;;17.16;100.00
58927;BME280;44712;52.530;9.760;2023-10-13T09:25:34;100088.13;;;17.21;100.00
58927;BME280;44712;52.530;9.760;2023-10-13T09:28:13;100083.41;;;17.25;100.00
58927;BME280;44712;52.530;9.760;2023-10-13T09:30:50;100089.66;;;17.27;100.00
58927;BME280;44712;52.530;9.760;2023-10-13T09:33:20;100061.28;;;17.30;100.00
58927;BME280;44712;52.530;9.760;2023-10-13T09:35:56;100060.97;;;17.36;100.00
58927;BME280;44712;52.530;9.760;2023-10-13T09:38:27;100045.91;;;17.45;100.00
58927;BME280;44712;52.530;9.760;2023-10-13T09:40:55;100035.78;;;17.47;100.00
58927;BME280;44712;52.530;9.760;2023-10-13T09:43:37;100026.38;;;17.52;100.00
58927;BME280;44712;52.530;9.760;2023-10-13T09:46:06;100030.63;;;17.58;100.00
58927;BME280;44712;52.530;9.760;2023-10-13T09:48:37;100022.09;;;17.64;100.00
58927;BME280;44712;52.530;9.760;2023-10-13T09:51:14;100017.25;;;17.69;100.00
58927;BME280;44712;52.530;9.760;2023-10-13T09:53:48;100009.69;;;17.74;100.00
58927;BME280;44712;52.530;9.760;2023-10-13T09:56:47;100007.56;;;17.80;100.00
58927;BME280;44712;52.530;9.760;2023-10-13T09:59:31;100000.00;;;17.85;100.00
58927;BME280;44712;52.530;9.760;2023-10-13T10:02:06;99992.13;;;17.96;100.00
58927;BME280;44712;52.530;9.760;2023-10-13T10:04:52;99996.56;;;18.15;100.00
58927;BME280;44712;52.530;9.760;2023-10-13T10:07:24;99989.53;;;18.27;100.00
58927;BME280;44712;52.530;9.760;2023-10-13T10:10:01;99982.44;;;18.38;100.00
58927;BME280;44712;52.530;9.760;2023-10-13T10:12:38;99990.94;;;18.50;100.00
58927;BME280;44712;52.530;9.760;2023-10-13T10:18:04;99968.28;;;18.78;100.00
58927;BME280;44712;52.530;9.760;2023-10-13T10:20:37;99970.25;;;18.92;100.00
58927;BME280;44712;52.530;9.760;2023-10-13T10:23:08;99975.53;;;18.95;100.00
58927;BME280;44712;52.530;9.760;2023-10-13T10:25:48;99956.34;;;18.95;100.00
58927;BME280;44712;52.530;9.760;2023-10-13T10:28:18;99956.84;;;19.02;100.00
58927;BME280;44712;52.530;9.760;2023-10-13T10:30:46;99963.81;;;19.07;100.00
58927;BME280;44712;52.530;9.760;2023-10-13T10:33:15;99965.38;;;19.12;100.00
58927;BME280;44712;52.530;9.760;2023-10-13T10:35:46;99960.41;;;19.18;100.00
58927;BME280;44712;52.530;9.760;2023-10-13T10:38:19;99951.72;;;19.26;100.00
58927;BME280;44712;52.530;9.760;2023-10-13T10:41:03;99950.75;;;19.27;100.00
58927;BME280;44712;52.530;9.760;2023-10-13T10:43:37;99944.88;;;19.33;100.00
58927;BME280;44712;52.530;9.760;2023-10-13T10:46:18;99946.88;;;19.46;100.00
58927;BME280;44712;52.530;9.760;2023-10-13T10:48:45;99942.53;;;19.56;100.00
58927;BME280;44712;52.530;9.760;2023-10-13T10:51:14;99927.47;;;19.63;100.00
58927;BME280;44712;52.530;9.760;2023-10-13T10:53:50;99917.69;;;19.73;100.00
58927;BME280;44712;52.530;9.760;2023-10-13T10:56:26;99898.88;;;19.82;100.00
58927;BME280;44712;52.530;9.760;2023-10-13T10:59:04;99901.41;;;19.85;100.00
58927;BME280;44712;52.530;9.760;2023-10-13T11:01:32;99900.25;;;19.89;100.00
58927;BME280;44712;52.530;9.760;2023-10-13T11:04:06;99895.22;;;19.96;100.00
58927;BME280;44712;52.530;9.760;2023-10-13T11:06:54;99885.59;;;20.03;100.00
58927;BME280;44712;52.530;9.760;2023-10-13T11:09:35;99890.91;;;20.06;100.00
58927;BME280;44712;52.530;9.760;2023-10-13T11:15:05;99890.56;;;20.25;100.00
58927;BME280;44712;52.530;9.760;2023-10-13T11:18:02;99883.75;;;20.31;100.00
58927;BME280;44712;52.530;9.760;2023-10-13T11:20:32;99892.56;;;20.36;100.00
58927;BME280;44712;52.530;9.760;2023-10-13T11:23:11;99878.09;;;20.47;100.00
58927;BME280;44712;52.530;9.760;2023-10-13T11:25:38;99873.75;;;20.57;100.00
58927;BME280;44712;52.530;9.760;2023-10-13T11:28:14;99872.44;;;20.63;100.00
58927;BME280;44712;52.530;9.760;2023-10-13T11:30:45;99876.97;;;20.64;100.00
58927;BME280;44712;52.530;9.760;2023-10-13T11:33:19;99876.63;;;20.68;100.00
58927;BME280;44712;52.530;9.760;2023-10-13T11:35:50;99864.97;;;20.79;100.00
58927;BME280;44712;52.530;9.760;2023-10-13T11:38:28;99863.94;;;20.80;100.00
58927;BME280;44712;52.530;9.760;2023-10-13T11:40:57;99862.44;;;20.89;100.00
58927;BME280;44712;52.530;9.760;2023-10-13T11:43:38;99853.50;;;20.85;100.00
58927;BME280;44712;52.530;9.760;2023-10-13T11:46:13;99839.00;;;20.83;100.00
58927;BME280;44712;52.530;9.760;2023-10-13T11:48:45;99839.13;;;20.82;100.00
58927;BME280;44712;52.530;9.760;2023-10-13T11:51:23;99842.63;;;20.84;100.00
58927;BME280;44712;52.530;9.760;2023-10-13T11:53:58;99832.19;;;20.89;100.00
58927;BME280;44712;52.530;9.760;2023-10-13T11:56:25;99832.88;;;20.93;100.00
58927;BME280;44712;52.530;9.760;2023-10-13T11:58:51;99828.56;;;21.01;100.00
58927;BME280;44712;52.530;9.760;2023-10-13T12:01:18;99815.06;;;21.11;100.00
58927;BME280;44712;52.530;9.760;2023-10-13T12:03:49;99817.03;;;21.22;100.00
58927;BME280;44712;52.530;9.760;2023-10-13T12:06:35;99820.66;;;21.35;100.00
58927;BME280;44712;52.530;9.760;2023-10-13T12:09:23;99829.56;;;21.39;100.00
58927;BME280;44712;52.530;9.760;2023-10-13T12:11:49;99821.72;;;21.46;99.22
58927;BME280;44712;52.530;9.760;2023-10-13T12:14:23;99797.50;;;21.51;98.11
58927;BME280;44712;52.530;9.760;2023-10-13T12:16:57;99808.34;;;21.54;96.83
58927;BME280;44712;52.530;9.760;2023-10-13T12:19:32;99795.09;;;21.59;98.59
58927;BME280;44712;52.530;9.760;2023-10-13T12:22:02;99801.25;;;21.50;98.92
58927;BME280;44712;52.530;9.760;2023-10-13T12:24:34;99800.38;;;21.49;96.90
58927;BME280;44712;52.530;9.760;2023-10-13T12:27:05;99792.47;;;21.45;96.73
58927;BME280;44712;52.530;9.760;2023-10-13T12:29:52;99789.72;;;21.45;98.84
58927;BME280;44712;52.530;9.760;2023-10-13T12:32:20;99784.97;;;21.47;98.20
58927;BME280;44712;52.530;9.760;2023-10-13T12:34:58;99786.38;;;21.52;100.00
58927;BME280;44712;52.530;9.760;2023-10-13T12:37:30;99778.25;;;21.51;98.22
58927;BME280;44712;52.530;9.760;2023-10-13T12:40:12;99774.41;;;21.53;98.74
58927;BME280;44712;52.530;9.760;2023-10-13T12:43:00;99771.53;;;21.55;97.13
58927;BME280;44712;52.530;9.760;2023-10-13T12:45:51;99754.16;;;21.54;96.55
58927;BME280;44712;52.530;9.760;2023-10-13T12:51:55;99751.25;;;21.69;94.64
58927;BME280;44712;52.530;9.760;2023-10-13T12:54:22;99754.56;;;21.74;93.78
58927;BME280;44712;52.530;9.760;2023-10-13T12:57:04;99743.72;;;21.84;95.45
58927;BME280;44712;52.530;9.760;2023-10-13T12:59:36;99735.75;;;21.92;95.06
58927;BME280;44712;52.530;9.760;2023-10-13T13:08:26;99734.22;;;21.88;92.61
58927;BME280;44712;52.530;9.760;2023-10-13T13:10:53;99727.19;;;21.84;91.48
58927;BME280;44712;52.530;9.760;2023-10-13T13:13:21;99727.06;;;21.85;92.34
58927;BME280;44712;52.530;9.760;2023-10-13T13:18:54;99717.94;;;21.85;91.50
58927;BME280;44712;52.530;9.760;2023-10-13T13:21:21;99704.91;;;21.87;91.00
58927;BME280;44712;52.530;9.760;2023-10-13T13:23:51;99721.69;;;21.84;91.74
58927;BME280;44712;52.530;9.760;2023-10-13T13:26:27;99727.84;;;21.87;91.21
58927;BME280;44712;52.530;9.760;2023-10-13T13:28:56;99709.16;;;21.80;90.50
58927;BME280;44712;52.530;9.760;2023-10-13T13:31:24;99708.91;;;21.83;90.43
58927;BME280;44712;52.530;9.760;2023-10-13T13:33:57;99703.41;;;21.83;89.92
58927;BME280;44712;52.530;9.760;2023-10-13T13:36:25;99692.63;;;21.80;90.42
58927;BME280;44712;52.530;9.760;2023-10-13T13:38:53;99685.13;;;21.82;90.00
58927;BME280;44712;52.530;9.760;2023-10-13T13:41:26;99685.34;;;21.79;89.95
58927;BME280;44712;52.530;9.760;2023-10-13T13:43:53;99683.38;;;21.81;89.48
58927;BME280;44712;52.530;9.760;2023-10-13T13:46:24;99676.63;;;21.85;90.91
58927;BME280;44712;52.530;9.760;2023-10-13T13:48:54;99671.34;;;21.82;89.96
58927;BME280;44712;52.530;9.760;2023-10-13T13:51:28;99666.63;;;21.84;89.00
58927;BME280;44712;52.530;9.760;2023-10-13T13:53:55;99667.25;;;21.87;87.30
58927;BME280;44712;52.530;9.760;2023-10-13T13:56:23;99656.66;;;21.94;85.44
58927;BME280;44712;52.530;9.760;2023-10-13T13:58:54;99662.31;;;22.04;82.29
58927;BME280;44712;52.530;9.760;2023-10-13T14:01:25;99646.44;;;22.07;82.55